createdAt,value
2023-01-11T11:12:45.923Z,37.24
2023-01-11T11:13:45.207Z,36.42
2023-01-11T11:14:46.426Z,35.90
2023-01-11T11:15:44.955Z,35.48
2023-01-11T11:16:44.905Z,35.18
2023-01-11T11:17:44.723Z,34.90
2023-01-11T11:18:44.568Z,34.98
2023-01-11T11:19:44.380Z,34.60
2023-01-11T11:20:44.327Z,35.10
2023-01-11T11:21:44.202Z,35.21
2023-01-11T11:22:44.108Z,34.87
2023-01-11T11:23:43.746Z,34.65
2023-01-11T11:24:43.551Z,33.84
2023-01-11T11:25:43.553Z,34.39
2023-01-11T11:26:43.215Z,34.16
2023-01-11T11:27:43.028Z,34.04
2023-01-11T11:28:42.846Z,33.99
2023-01-11T11:29:42.693Z,34.83
2023-01-11T11:30:42.531Z,34.04
2023-01-11T11:31:42.879Z,34.05
2023-01-11T11:32:42.164Z,34.35
2023-01-11T11:33:41.969Z,34.21
2023-01-11T11:34:41.786Z,33.93
2023-01-11T11:35:41.604Z,33.95
2023-01-11T11:36:41.425Z,34.20
2023-01-11T11:37:41.217Z,34.19
2023-01-11T11:38:41.046Z,34.04
2023-01-11T11:39:40.903Z,34.27
2023-01-11T11:40:40.683Z,34.51
2023-01-11T11:41:40.515Z,34.43
2023-01-11T11:42:40.316Z,36.12
2023-01-11T11:43:40.171Z,34.51
2023-01-11T11:44:40.943Z,35.87
2023-01-11T11:45:39.866Z,34.71
2023-01-11T11:46:39.650Z,34.95
2023-01-11T11:47:39.431Z,34.77
2023-01-11T11:48:39.229Z,34.97
2023-01-11T11:49:39.030Z,34.68
2023-01-11T11:50:45.907Z,34.54
2023-01-11T11:51:39.773Z,34.50
2023-01-11T11:52:38.569Z,34.85
2023-01-11T11:53:38.369Z,34.65
2023-01-11T11:54:52.003Z,35.07
